createdAt,value
2022-11-23T00:00:07.044Z,67.93
2022-11-23T00:02:33.742Z,71.65
2022-11-23T00:05:00.448Z,73.75
2022-11-23T00:07:27.139Z,70.72
2022-11-23T00:09:53.950Z,70.32
2022-11-23T00:12:20.639Z,70.07
2022-11-23T00:14:47.301Z,70.43
2022-11-23T00:17:13.985Z,68.07
2022-11-23T00:19:40.672Z,69.10
2022-11-23T00:22:07.342Z,68.45
2022-11-23T00:24:34.060Z,68.10
2022-11-23T00:27:00.783Z,67.20
2022-11-23T00:29:27.487Z,70.63
2022-11-23T00:31:54.145Z,71.93
2022-11-23T00:34:20.904Z,69.05
2022-11-23T00:36:47.613Z,69.20
2022-11-23T00:39:14.360Z,69.88
2022-11-23T00:41:41.044Z,70.97
2022-11-23T00:44:07.718Z,69.60
2022-11-23T00:46:34.385Z,68.18
2022-11-23T00:49:01.048Z,68.95
2022-11-23T00:51:32.723Z,71.47
2022-11-23T00:54:00.652Z,69.32
2022-11-23T00:56:28.390Z,67.20
2022-11-23T00:58:56.827Z,66.05
2022-11-23T01:01:29.615Z,67.78
2022-11-23T01:03:59.127Z,67.22
2022-11-23T01:06:28.775Z,69.22
2022-11-23T01:08:58.065Z,67.82
2022-11-23T01:11:27.432Z,68.50
2022-11-23T01:13:54.384Z,70.22
2022-11-23T01:16:27.527Z,69.80
2022-11-23T01:18:59.432Z,69.07
2022-11-23T01:21:28.888Z,67.32
2022-11-23T01:23:56.070Z,67.47
2022-11-23T01:26:23.607Z,68.03
2022-11-23T01:28:50.704Z,70.22
2022-11-23T01:31:20.537Z,67.63
2022-11-23T01:33:47.999Z,68.40
2022-11-23T01:36:18.132Z,69.35
2022-11-23T01:38:45.999Z,68.50
2022-11-23T01:41:25.071Z,67.95
2022-11-23T01:43:52.171Z,67.38
2022-11-23T01:46:18.853Z,66.93
2022-11-23T01:49:06.950Z,67.07
2022-11-23T01:51:40.532Z,68.43
2022-11-23T01:54:24.970Z,66.30
2022-11-23T01:56:59.843Z,66.25
2022-11-23T01:59:28.654Z,66.70
2022-11-23T02:01:55.380Z,65.88
2022-11-23T02:04:30.076Z,64.43
2022-11-23T02:06:59.615Z,65.10
2022-11-23T02:09:26.500Z,64.70
2022-11-23T02:11:53.280Z,63.40
2022-11-23T02:14:23.391Z,62.53
2022-11-23T02:16:50.432Z,64.72
2022-11-23T02:19:34.911Z,67.53
2022-11-23T02:22:01.671Z,63.83
2022-11-23T02:24:36.862Z,63.78
2022-11-23T02:27:04.882Z,65.07
2022-11-23T02:29:31.675Z,64.63
2022-11-23T02:31:58.582Z,62.80
2022-11-23T02:34:25.209Z,61.60
2022-11-23T02:36:57.100Z,61.13
2022-11-23T02:39:30.808Z,62.47
2022-11-23T02:41:58.397Z,59.25
2022-11-23T02:44:46.621Z,60.80
2022-11-23T02:47:13.530Z,60.63
2022-11-23T02:49:46.617Z,61.70
2022-11-23T02:52:14.242Z,62.17
2022-11-23T02:54:40.938Z,64.15
2022-11-23T02:57:07.726Z,62.83
2022-11-23T02:59:34.678Z,59.90
2022-11-23T03:02:03.682Z,61.47
2022-11-23T03:04:31.071Z,60.92
2022-11-23T03:06:57.991Z,64.13
2022-11-23T03:09:24.739Z,63.88
2022-11-23T03:11:51.942Z,62.50
2022-11-23T03:14:18.580Z,63.30
2022-11-23T03:16:45.274Z,62.75
2022-11-23T03:19:12.009Z,65.68
2022-11-23T03:21:38.744Z,67.10
2022-11-23T03:24:05.774Z,66.30
2022-11-23T03:26:32.470Z,67.93
2022-11-23T03:28:59.221Z,65.80
2022-11-23T03:31:26.060Z,68.20
2022-11-23T03:33:52.761Z,65.13
2022-11-23T03:36:19.558Z,64.40
2022-11-23T03:38:46.215Z,64.60
2022-11-23T03:41:12.953Z,63.10
2022-11-23T03:43:39.621Z,66.22
2022-11-23T03:46:06.280Z,63.17
2022-11-23T03:48:32.970Z,62.33
2022-11-23T03:51:02.366Z,63.78
2022-11-23T03:53:29.172Z,64.97
2022-11-23T03:55:55.835Z,64.28
2022-11-23T03:58:22.729Z,66.05
2022-11-23T04:00:49.680Z,65.15
2022-11-23T04:03:16.446Z,65.18
2022-11-23T04:05:43.420Z,66.32
2022-11-23T04:08:10.251Z,63.92
2022-11-23T04:10:36.940Z,63.97
2022-11-23T04:13:03.593Z,65.50
2022-11-23T04:15:30.288Z,64.88
2022-11-23T04:17:57.023Z,65.95
2022-11-23T04:20:23.815Z,65.75
2022-11-23T04:22:50.503Z,65.57
2022-11-23T04:25:17.212Z,63.17
2022-11-23T04:27:44.642Z,62.20
2022-11-23T04:30:11.923Z,59.42
2022-11-23T04:32:38.651Z,61.78
2022-11-23T04:35:05.876Z,62.03
2022-11-23T04:37:32.615Z,62.63
2022-11-23T04:39:59.396Z,62.88
2022-11-23T04:42:26.371Z,60.65
2022-11-23T04:44:53.033Z,60.53
2022-11-23T04:47:19.677Z,61.28
2022-11-23T04:49:46.366Z,62.42
2022-11-23T04:52:13.063Z,62.60
2022-11-23T04:54:39.697Z,63.00
2022-11-23T04:57:06.405Z,61.03
2022-11-23T04:59:33.191Z,61.33
2022-11-23T05:02:00.096Z,61.17
2022-11-23T05:04:26.809Z,61.92
2022-11-23T05:06:53.529Z,60.65
2022-11-23T05:09:20.276Z,62.63
2022-11-23T05:11:46.936Z,60.97
2022-11-23T05:14:13.829Z,60.35
2022-11-23T05:16:40.522Z,62.92
2022-11-23T05:19:07.472Z,61.05
2022-11-23T05:21:34.389Z,61.33
2022-11-23T05:24:01.014Z,59.22
2022-11-23T05:26:27.667Z,63.35
2022-11-23T05:28:54.318Z,60.65
2022-11-23T05:31:20.945Z,59.38
2022-11-23T05:33:47.618Z,59.20
2022-11-23T05:36:14.284Z,60.00
2022-11-23T05:38:41.590Z,59.60
2022-11-23T05:41:08.325Z,59.17
2022-11-23T05:43:35.036Z,60.13
2022-11-23T05:46:02.870Z,59.97
2022-11-23T05:48:29.597Z,57.50
2022-11-23T05:50:58.624Z,56.97
2022-11-23T05:53:28.957Z,56.42
2022-11-23T05:56:02.342Z,56.13
2022-11-23T05:58:29.449Z,56.92
2022-11-23T06:01:00.538Z,56.20
2022-11-23T06:03:27.500Z,56.47
2022-11-23T06:05:54.167Z,56.33
2022-11-23T06:08:20.860Z,53.95
2022-11-23T06:10:47.642Z,55.92
2022-11-23T06:13:14.372Z,58.13
2022-11-23T06:15:41.092Z,53.88
2022-11-23T06:18:08.859Z,55.05
2022-11-23T06:20:35.785Z,57.05
2022-11-23T06:23:02.508Z,55.30
2022-11-23T06:25:29.271Z,53.63
2022-11-23T06:27:57.669Z,51.67
2022-11-23T06:30:25.073Z,54.88
2022-11-23T06:32:52.110Z,54.97
2022-11-23T06:35:19.038Z,53.58
2022-11-23T06:37:48.502Z,54.15
2022-11-23T06:40:15.337Z,53.33
2022-11-23T06:42:41.989Z,55.05
2022-11-23T06:45:09.559Z,55.17
2022-11-23T06:47:36.390Z,53.60
2022-11-23T06:50:03.467Z,55.15
2022-11-23T06:52:30.358Z,54.55
2022-11-23T06:54:57.432Z,63.28
2022-11-23T06:57:24.254Z,60.50
2022-11-23T06:59:50.985Z,54.97
2022-11-23T07:02:17.694Z,61.40
2022-11-23T07:04:44.926Z,65.38
2022-11-23T07:07:11.593Z,67.68
2022-11-23T07:09:38.381Z,60.47
2022-11-23T07:12:05.366Z,74.32
2022-11-23T07:14:32.131Z,59.25
2022-11-23T07:16:58.871Z,62.58
2022-11-23T07:19:25.527Z,67.03
2022-11-23T07:21:52.206Z,57.40
2022-11-23T07:24:18.960Z,73.20
2022-11-23T07:26:45.707Z,75.97
2022-11-23T07:29:12.427Z,78.43
2022-11-23T07:31:39.184Z,67.78
2022-11-23T07:34:05.981Z,64.13
2022-11-23T07:36:33.306Z,57.47
2022-11-23T07:38:59.995Z,56.90
2022-11-23T07:41:26.664Z,57.25
2022-11-23T07:43:53.577Z,56.10
2022-11-23T07:46:20.859Z,55.67
2022-11-23T07:48:47.512Z,53.40
2022-11-23T07:51:14.217Z,55.20
2022-11-23T07:53:40.977Z,54.70
2022-11-23T07:56:07.997Z,53.75
2022-11-23T07:58:35.016Z,58.17
2022-11-23T08:01:01.783Z,54.70
2022-11-23T08:03:29.516Z,53.35
2022-11-23T08:05:57.005Z,53.25
2022-11-23T08:08:24.044Z,52.15
2022-11-23T08:10:53.946Z,54.05
2022-11-23T08:13:22.224Z,51.60
2022-11-23T08:15:54.345Z,51.90
2022-11-23T08:18:21.960Z,51.45
2022-11-23T08:20:48.630Z,55.20
2022-11-23T08:23:15.527Z,52.28
2022-11-23T08:25:42.345Z,52.25
2022-11-23T08:28:09.296Z,50.28
2022-11-23T08:30:36.393Z,47.80
2022-11-23T08:33:05.163Z,47.88
2022-11-23T08:35:34.315Z,48.03
2022-11-23T08:38:01.018Z,48.33
2022-11-23T08:40:27.854Z,48.97
2022-11-23T08:42:55.011Z,46.00
2022-11-23T08:45:22.099Z,47.13
2022-11-23T08:47:48.766Z,46.30
2022-11-23T08:50:15.740Z,47.95
2022-11-23T08:52:42.604Z,45.33
2022-11-23T08:55:09.485Z,47.17
2022-11-23T08:57:36.156Z,57.97
2022-11-23T09:00:04.214Z,44.45
2022-11-23T09:02:30.874Z,43.63
2022-11-23T09:04:57.578Z,44.53
2022-11-23T09:07:24.847Z,43.92
2022-11-23T09:09:51.599Z,44.45
2022-11-23T09:12:18.310Z,43.25
2022-11-23T09:14:45.029Z,44.38
2022-11-23T09:17:12.183Z,42.35
2022-11-23T09:19:38.892Z,42.65
2022-11-23T09:22:05.535Z,43.72
2022-11-23T09:24:32.646Z,41.90
2022-11-23T09:26:59.531Z,42.38
2022-11-23T09:29:26.232Z,44.58
2022-11-23T09:31:53.060Z,43.10
2022-11-23T09:34:19.802Z,42.70
2022-11-23T09:36:46.950Z,41.67
2022-11-23T09:39:13.730Z,43.58
2022-11-23T09:41:49.698Z,43.20
2022-11-23T09:44:16.286Z,44.30
2022-11-23T09:47:21.420Z,44.10
2022-11-23T09:50:06.619Z,42.70
2022-11-23T09:52:42.389Z,43.10
2022-11-23T09:55:21.552Z,41.58
2022-11-23T09:57:50.734Z,44.03
2022-11-23T10:00:24.025Z,44.97
2022-11-23T10:02:50.758Z,40.67
2022-11-23T10:05:23.297Z,40.72
2022-11-23T10:08:16.340Z,40.63
2022-11-23T10:11:16.643Z,41.92
2022-11-23T10:13:58.712Z,41.90
2022-11-23T10:16:28.213Z,39.83
2022-11-23T10:19:05.506Z,39.75
2022-11-23T10:21:51.645Z,41.38
2022-11-23T10:26:49.150Z,39.70
2022-11-23T10:29:27.768Z,38.25
2022-11-23T10:31:57.192Z,38.72
2022-11-23T10:34:56.881Z,39.10
2022-11-23T10:37:23.528Z,40.47
2022-11-23T10:39:50.367Z,40.83
2022-11-23T10:42:57.924Z,38.28
2022-11-23T10:45:27.293Z,39.17
2022-11-23T10:48:00.794Z,37.40
2022-11-23T10:50:31.707Z,38.47
2022-11-23T10:53:20.097Z,36.45
2022-11-23T10:55:56.852Z,37.08
2022-11-23T10:58:44.993Z,34.70
2022-11-23T11:01:18.934Z,36.42
2022-11-23T11:03:45.721Z,36.83
2022-11-23T11:06:26.011Z,36.92
2022-11-23T11:09:02.745Z,36.20
2022-11-23T11:11:34.860Z,37.20
2022-11-23T11:14:42.821Z,35.45
2022-11-23T11:17:26.185Z,35.40
2022-11-23T11:19:52.891Z,35.38
2022-11-23T11:22:33.918Z,35.00
2022-11-23T11:25:05.281Z,33.35
2022-11-23T11:27:32.824Z,32.45
2022-11-23T11:30:07.031Z,33.03
2022-11-23T11:33:00.103Z,33.35
2022-11-23T11:35:31.555Z,33.78
2022-11-23T11:38:08.458Z,33.00
2022-11-23T11:40:49.479Z,32.45
2022-11-23T11:43:29.258Z,33.97
2022-11-23T11:46:29.801Z,32.28
2022-11-23T11:49:23.673Z,30.23
2022-11-23T11:51:59.074Z,30.42
2022-11-23T11:54:57.753Z,32.08
2022-11-23T11:57:37.434Z,30.67
2022-11-23T12:00:12.898Z,30.48
2022-11-23T12:03:15.850Z,30.13
2022-11-23T12:05:49.347Z,30.35
2022-11-23T12:08:51.084Z,29.05
2022-11-23T12:11:17.948Z,29.52
2022-11-23T12:13:45.414Z,30.55
2022-11-23T12:16:34.125Z,30.52
2022-11-23T12:19:20.800Z,29.75
2022-11-23T12:21:59.838Z,29.17
2022-11-23T12:24:32.520Z,28.98
2022-11-23T12:27:15.712Z,29.42
2022-11-23T12:30:00.174Z,30.33
2022-11-23T12:33:00.708Z,28.40
2022-11-23T12:35:46.507Z,29.23
2022-11-23T12:38:31.268Z,29.42
2022-11-23T12:41:18.133Z,28.63
2022-11-23T12:44:07.624Z,27.48
2022-11-23T12:47:01.023Z,27.48
2022-11-23T12:50:00.252Z,27.17
2022-11-23T12:52:37.603Z,27.45
2022-11-23T12:55:25.007Z,27.70
2022-11-23T12:57:59.780Z,27.95
2022-11-23T13:00:34.277Z,26.58
2022-11-23T13:03:31.992Z,27.00
2022-11-23T13:06:16.805Z,25.52
2022-11-23T13:09:15.783Z,26.90
2022-11-23T13:11:48.201Z,25.27
2022-11-23T13:14:23.766Z,25.90
2022-11-23T13:17:02.588Z,25.98
2022-11-23T13:19:37.280Z,24.30
2022-11-23T13:22:06.482Z,25.52
2022-11-23T13:24:37.417Z,25.05
2022-11-23T13:27:13.497Z,23.77
2022-11-23T13:29:46.428Z,23.10
2022-11-23T13:32:37.988Z,39.50
2022-11-23T13:35:16.951Z,23.60
2022-11-23T13:37:59.028Z,23.00
2022-11-23T13:40:28.112Z,22.70
2022-11-23T13:42:59.553Z,22.80
2022-11-23T13:45:37.237Z,22.95
2022-11-23T13:48:13.259Z,22.45
2022-11-23T13:50:49.270Z,23.15
2022-11-23T13:53:23.719Z,23.30
2022-11-23T13:55:53.639Z,24.40
2022-11-23T13:58:23.337Z,22.38
2022-11-23T14:00:54.411Z,22.05
2022-11-23T14:03:43.072Z,23.65
2022-11-23T14:06:34.655Z,22.52
2022-11-23T14:09:23.098Z,22.45
2022-11-23T14:12:02.428Z,21.80
2022-11-23T14:15:03.504Z,23.23
2022-11-23T14:17:49.024Z,22.95
2022-11-23T14:20:28.098Z,22.65
2022-11-23T14:23:09.279Z,23.02
2022-11-23T14:25:44.059Z,23.35
2022-11-23T14:29:04.526Z,24.35
2022-11-23T14:31:57.770Z,26.42
2022-11-23T14:34:57.298Z,26.00
2022-11-23T14:37:44.823Z,28.35
2022-11-23T14:40:48.378Z,27.75
2022-11-23T14:43:18.358Z,28.20
2022-11-23T14:45:46.047Z,28.92
2022-11-23T14:48:28.877Z,29.58
2022-11-23T14:51:00.859Z,29.77
2022-11-23T14:53:46.463Z,30.80
2022-11-23T14:58:53.459Z,31.27
2022-11-23T15:01:22.684Z,30.55
2022-11-23T15:03:58.780Z,30.92
2022-11-23T15:06:33.202Z,33.33
2022-11-23T15:09:26.206Z,31.27
2022-11-23T15:12:25.898Z,32.97
2022-11-23T15:14:54.385Z,32.17
2022-11-23T15:17:22.193Z,34.45
2022-11-23T15:19:55.766Z,34.53
2022-11-23T15:22:22.741Z,83.75
2022-11-23T15:24:49.398Z,39.97
2022-11-23T15:27:21.805Z,38.63
2022-11-23T15:29:57.068Z,34.40
2022-11-23T15:32:31.158Z,33.90
2022-11-23T15:35:05.763Z,32.20
2022-11-23T15:37:42.753Z,31.75
2022-11-23T15:40:16.550Z,33.03
2022-11-23T15:42:45.363Z,30.67
2022-11-23T15:45:38.898Z,31.38
2022-11-23T15:48:13.590Z,30.45
2022-11-23T15:50:53.675Z,31.23
2022-11-23T15:53:25.077Z,28.77
2022-11-23T15:55:52.758Z,30.30
2022-11-23T15:58:21.084Z,30.88
2022-11-23T16:00:51.573Z,30.65
2022-11-23T16:03:29.295Z,31.25
2022-11-23T16:06:11.444Z,31.50
2022-11-23T16:08:38.750Z,32.13
2022-11-23T16:11:05.511Z,33.30
2022-11-23T16:13:37.452Z,33.33
2022-11-23T16:16:14.179Z,34.20
2022-11-23T16:18:50.459Z,35.03
2022-11-23T16:21:19.802Z,35.67
2022-11-23T16:23:53.146Z,34.80
2022-11-23T16:26:21.243Z,35.65
2022-11-23T16:28:51.032Z,37.03
2022-11-23T16:31:30.557Z,37.30
2022-11-23T16:33:57.533Z,36.63
2022-11-23T16:36:27.489Z,37.92
2022-11-23T16:38:59.735Z,39.85
2022-11-23T16:41:30.724Z,39.47
2022-11-23T16:43:57.357Z,39.83
2022-11-23T16:46:24.113Z,42.45
2022-11-23T16:48:50.986Z,41.10
2022-11-23T16:51:17.676Z,42.40
2022-11-23T16:54:12.638Z,43.10
2022-11-23T16:56:33.592Z,44.65
2022-11-23T16:59:00.345Z,43.42
2022-11-23T17:01:28.958Z,44.83
2022-11-23T17:03:56.243Z,45.75
2022-11-23T17:06:23.271Z,47.20
2022-11-23T17:08:59.379Z,45.83
2022-11-23T17:11:30.109Z,46.10
2022-11-23T17:13:56.946Z,46.60
2022-11-23T17:16:25.593Z,47.33
2022-11-23T17:18:52.538Z,48.88
2022-11-23T17:21:19.427Z,46.47
2022-11-23T17:23:46.200Z,49.10
2022-11-23T17:26:30.830Z,46.90
2022-11-23T17:29:00.679Z,48.58
2022-11-23T17:31:27.615Z,50.72
2022-11-23T17:33:54.518Z,49.95
2022-11-23T17:36:21.316Z,49.15
2022-11-23T17:38:48.370Z,48.75
2022-11-23T17:41:15.985Z,49.38
2022-11-23T17:43:43.032Z,48.63
2022-11-23T17:46:21.640Z,50.70
2022-11-23T17:48:57.256Z,49.15
2022-11-23T17:51:25.096Z,50.40
2022-11-23T17:53:52.126Z,48.60
2022-11-23T17:56:22.149Z,52.20
2022-11-23T17:58:49.641Z,53.05
2022-11-23T18:01:18.741Z,53.83
2022-11-23T18:03:45.974Z,54.13
2022-11-23T18:06:22.293Z,56.65
2022-11-23T18:08:50.558Z,57.05
2022-11-23T18:11:17.562Z,56.95
2022-11-23T18:13:44.894Z,56.97
2022-11-23T18:16:11.732Z,56.58
2022-11-23T18:18:38.814Z,57.90
2022-11-23T18:21:06.743Z,58.78
2022-11-23T18:23:33.959Z,59.58
2022-11-23T18:26:15.277Z,60.40
2022-11-23T18:28:42.042Z,60.58
2022-11-23T18:31:08.971Z,60.33
2022-11-23T18:33:36.716Z,62.47
2022-11-23T18:36:05.626Z,60.45
2022-11-23T18:38:33.906Z,62.65
2022-11-23T18:41:00.933Z,64.20
2022-11-23T18:43:27.587Z,64.60
2022-11-23T18:45:54.368Z,65.13
2022-11-23T18:48:21.179Z,68.25
2022-11-23T18:50:47.826Z,65.68
2022-11-23T18:53:14.841Z,67.55
2022-11-23T18:55:41.633Z,67.88
2022-11-23T18:58:08.357Z,68.07
2022-11-23T19:00:35.136Z,68.10
2022-11-23T19:03:02.681Z,68.38
2022-11-23T19:05:32.786Z,67.72
2022-11-23T19:08:05.095Z,66.95
2022-11-23T19:10:33.098Z,68.78
2022-11-23T19:13:05.192Z,68.38
2022-11-23T19:15:32.851Z,68.97
2022-11-23T19:17:59.807Z,68.03
2022-11-23T19:20:26.490Z,66.32
2022-11-23T19:22:53.182Z,67.43
2022-11-23T19:25:19.871Z,68.97
2022-11-23T19:27:46.650Z,68.97
2022-11-23T19:30:14.236Z,69.30
2022-11-23T19:32:40.921Z,67.25
2022-11-23T19:35:08.292Z,68.07
2022-11-23T19:37:36.436Z,67.32
2022-11-23T19:40:03.492Z,68.40
2022-11-23T19:42:34.567Z,66.72
2022-11-23T19:45:01.478Z,67.45
2022-11-23T19:47:29.725Z,68.40
2022-11-23T19:49:56.423Z,69.13
2022-11-23T19:52:23.083Z,70.32
2022-11-23T19:54:49.720Z,72.10
2022-11-23T19:57:16.374Z,68.47
2022-11-23T19:59:43.023Z,71.07
2022-11-23T20:02:23.883Z,70.75
2022-11-23T20:04:51.134Z,71.63
2022-11-23T20:07:18.918Z,67.65
2022-11-23T20:09:45.739Z,67.55
2022-11-23T20:12:12.502Z,68.32
2022-11-23T20:14:39.206Z,68.95
2022-11-23T20:17:05.854Z,73.20
2022-11-23T20:19:32.840Z,73.38
2022-11-23T20:21:59.650Z,70.97
2022-11-23T20:24:26.685Z,70.55
2022-11-23T20:26:53.706Z,68.20
2022-11-23T20:29:20.420Z,67.75
2022-11-23T20:31:47.235Z,68.07
2022-11-23T20:34:19.867Z,71.53
2022-11-23T20:36:48.237Z,72.38
2022-11-23T20:39:14.954Z,72.35
2022-11-23T20:41:42.509Z,72.85
2022-11-23T20:44:14.078Z,73.07
2022-11-23T20:49:28.240Z,76.13
2022-11-23T20:51:54.982Z,74.55
2022-11-23T20:54:21.646Z,77.28
2022-11-23T20:56:48.339Z,75.50
2022-11-23T20:59:15.148Z,78.32
2022-11-23T21:01:41.940Z,78.60
2022-11-23T21:04:08.768Z,82.00
2022-11-23T21:06:38.960Z,81.15
2022-11-23T21:09:07.122Z,80.22
2022-11-23T21:11:33.857Z,80.43
2022-11-23T21:14:01.303Z,81.35
2022-11-23T21:16:28.007Z,83.65
2022-11-23T21:18:54.661Z,83.47
2022-11-23T21:21:21.306Z,85.32
2022-11-23T21:23:51.129Z,85.68
2022-11-23T21:26:19.106Z,85.80
2022-11-23T21:28:45.825Z,84.65
2022-11-23T21:31:12.566Z,88.70
2022-11-23T21:33:39.605Z,87.15
2022-11-23T21:36:07.851Z,90.38
2022-11-23T21:38:35.525Z,89.68
2022-11-23T21:41:03.345Z,90.75
2022-11-23T21:43:30.113Z,89.07
2022-11-23T21:46:05.551Z,87.90
2022-11-23T21:48:33.542Z,90.38
2022-11-23T21:51:00.959Z,87.88
2022-11-23T21:53:28.118Z,90.95
2022-11-23T21:55:54.859Z,88.72
2022-11-23T21:58:21.552Z,90.88
2022-11-23T22:00:48.353Z,92.85
2022-11-23T22:03:15.187Z,92.43
2022-11-23T22:05:43.344Z,92.93
2022-11-23T22:10:56.891Z,96.32
2022-11-23T22:13:23.677Z,98.35
2022-11-23T22:15:50.467Z,97.93
2022-11-23T22:18:17.270Z,100.28
2022-11-23T22:20:44.198Z,99.60
2022-11-23T22:23:12.680Z,100.05
2022-11-23T22:25:41.921Z,105.03
2022-11-23T22:28:12.234Z,108.45
2022-11-23T22:30:39.016Z,105.95
2022-11-23T22:33:05.746Z,114.35
2022-11-23T22:35:32.858Z,116.75
2022-11-23T22:37:59.608Z,112.50
2022-11-23T22:40:26.372Z,112.30
2022-11-23T22:42:53.200Z,116.28
2022-11-23T22:45:19.942Z,110.25
2022-11-23T22:47:46.699Z,113.20
2022-11-23T22:50:13.522Z,112.22
2022-11-23T22:52:40.275Z,110.07
2022-11-23T22:55:07.352Z,120.82
2022-11-23T22:57:34.249Z,116.72
2022-11-23T23:00:00.975Z,112.68
2022-11-23T23:02:28.637Z,117.30
2022-11-23T23:04:55.433Z,111.75
2022-11-23T23:07:22.241Z,118.35
2022-11-23T23:09:49.077Z,113.15
2022-11-23T23:12:15.784Z,120.82
2022-11-23T23:14:42.510Z,111.32
2022-11-23T23:17:09.291Z,116.90
2022-11-23T23:19:36.022Z,123.68
2022-11-23T23:22:02.771Z,119.95
2022-11-23T23:24:29.549Z,111.97
2022-11-23T23:26:56.301Z,113.40
2022-11-23T23:29:23.063Z,122.93
2022-11-23T23:31:49.878Z,121.95
2022-11-23T23:34:16.674Z,123.70
2022-11-23T23:36:43.611Z,121.70
2022-11-23T23:39:11.115Z,119.20
2022-11-23T23:41:38.402Z,126.30
2022-11-23T23:44:05.368Z,117.00
2022-11-23T23:46:32.161Z,112.63
2022-11-23T23:48:59.089Z,117.35
2022-11-23T23:51:25.825Z,116.95
2022-11-23T23:53:53.078Z,119.22
2022-11-23T23:56:25.008Z,124.22
2022-11-23T23:58:54.167Z,121.03
